sensor_id;sensor_type;location;lat;lon;timestamp;temperature;humidity
70366;DHT22;57787;48.216;12.396;2023-02-01T00:01:21;4.00;77.50
70366;DHT22;57787;48.216;12.396;2023-02-01T00:03:49;4.00;78.20
70366;DHT22;57787;48.216;12.396;2023-02-01T00:06:18;4.00;77.50
70366;DHT22;57787;48.216;12.396;2023-02-01T00:08:45;4.00;77.40
70366;DHT22;57787;48.216;12.396;2023-02-01T00:11:13;4.00;77.60
70366;DHT22;57787;48.216;12.396;2023-02-01T00:13:42;4.00;77.60
70366;DHT22;57787;48.216;12.396;2023-02-01T00:16:29;4.00;77.80
70366;DHT22;57787;48.216;12.396;2023-02-01T00:18:59;4.00;78.00
70366;DHT22;57787;48.216;12.396;2023-02-01T00:21:28;4.00;77.90
70366;DHT22;57787;48.216;12.396;2023-02-01T00:23:58;4.00;78.30
70366;DHT22;57787;48.216;12.396;2023-02-01T00:26:38;4.00;78.20
70366;DHT22;57787;48.216;12.396;2023-02-01T00:29:16;4.00;78.00
70366;DHT22;57787;48.216;12.396;2023-02-01T00:31:45;4.00;78.20
70366;DHT22;57787;48.216;12.396;2023-02-01T00:34:15;4.00;78.20
70366;DHT22;57787;48.216;12.396;2023-02-01T00:36:44;4.00;78.60
70366;DHT22;57787;48.216;12.396;2023-02-01T00:39:13;4.00;78.90
70366;DHT22;57787;48.216;12.396;2023-02-01T00:41:47;4.00;79.00
70366;DHT22;57787;48.216;12.396;2023-02-01T00:44:15;4.00;79.20
70366;DHT22;57787;48.216;12.396;2023-02-01T00:46:44;4.00;79.20
70366;DHT22;57787;48.216;12.396;2023-02-01T00:49:15;4.00;79.10
70366;DHT22;57787;48.216;12.396;2023-02-01T00:51:43;4.00;79.40
70366;DHT22;57787;48.216;12.396;2023-02-01T00:54:10;4.00;79.50
70366;DHT22;57787;48.216;12.396;2023-02-01T00:56:38;4.00;79.30
70366;DHT22;57787;48.216;12.396;2023-02-01T00:59:05;4.00;79.10
70366;DHT22;57787;48.216;12.396;2023-02-01T01:01:35;4.00;79.30
70366;DHT22;57787;48.216;12.396;2023-02-01T01:04:02;3.90;79.40
70366;DHT22;57787;48.216;12.396;2023-02-01T01:06:32;3.90;79.50
70366;DHT22;57787;48.216;12.396;2023-02-01T01:09:04;3.90;79.20
70366;DHT22;57787;48.216;12.396;2023-02-01T01:11:35;3.90;79.10
70366;DHT22;57787;48.216;12.396;2023-02-01T01:14:07;3.90;79.00
70366;DHT22;57787;48.216;12.396;2023-02-01T01:16:35;3.90;78.90
70366;DHT22;57787;48.216;12.396;2023-02-01T01:19:03;3.90;79.00
70366;DHT22;57787;48.216;12.396;2023-02-01T01:21:33;3.90;79.10
70366;DHT22;57787;48.216;12.396;2023-02-01T01:24:01;3.90;78.90
70366;DHT22;57787;48.216;12.396;2023-02-01T01:26:31;3.90;79.00
70366;DHT22;57787;48.216;12.396;2023-02-01T01:28:59;3.90;78.70
70366;DHT22;57787;48.216;12.396;2023-02-01T01:31:27;3.90;79.00
70366;DHT22;57787;48.216;12.396;2023-02-01T01:33:57;3.90;78.40
70366;DHT22;57787;48.216;12.396;2023-02-01T01:36:26;3.90;78.50
70366;DHT22;57787;48.216;12.396;2023-02-01T01:38:54;3.90;78.40
70366;DHT22;57787;48.216;12.396;2023-02-01T01:41:25;4.00;78.30
70366;DHT22;57787;48.216;12.396;2023-02-01T01:44:06;4.00;78.60
70366;DHT22;57787;48.216;12.396;2023-02-01T01:46:53;3.90;78.40
70366;DHT22;57787;48.216;12.396;2023-02-01T01:49:24;3.90;78.60
70366;DHT22;57787;48.216;12.396;2023-02-01T01:52:00;4.00;78.80
70366;DHT22;57787;48.216;12.396;2023-02-01T01:54:46;3.90;78.70
70366;DHT22;57787;48.216;12.396;2023-02-01T01:57:25;3.90;79.30
70366;DHT22;57787;48.216;12.396;2023-02-01T01:59:56;3.90;79.20
70366;DHT22;57787;48.216;12.396;2023-02-01T02:02:29;3.90;79.30
70366;DHT22;57787;48.216;12.396;2023-02-01T02:04:57;4.00;79.20
70366;DHT22;57787;48.216;12.396;2023-02-01T02:07:30;4.00;79.10
70366;DHT22;57787;48.216;12.396;2023-02-01T02:10:01;3.90;79.60
70366;DHT22;57787;48.216;12.396;2023-02-01T02:12:29;4.00;79.40
70366;DHT22;57787;48.216;12.396;2023-02-01T02:14:57;4.00;79.60
70366;DHT22;57787;48.216;12.396;2023-02-01T02:23:03;3.90;79.70
70366;DHT22;57787;48.216;12.396;2023-02-01T02:34:48;3.90;79.90
70366;DHT22;57787;48.216;12.396;2023-02-01T02:37:50;3.90;80.00
70366;DHT22;57787;48.216;12.396;2023-02-01T02:40:46;3.90;80.30
70366;DHT22;57787;48.216;12.396;2023-02-01T02:43:20;3.90;80.10
70366;DHT22;57787;48.216;12.396;2023-02-01T02:46:28;3.90;80.20
70366;DHT22;57787;48.216;12.396;2023-02-01T02:52:15;3.90;80.30
70366;DHT22;57787;48.216;12.396;2023-02-01T02:55:03;3.90;80.40
70366;DHT22;57787;48.216;12.396;2023-02-01T02:57:39;3.90;80.40
70366;DHT22;57787;48.216;12.396;2023-02-01T03:00:32;3.90;80.40
70366;DHT22;57787;48.216;12.396;2023-02-01T03:03:20;3.80;80.60
70366;DHT22;57787;48.216;12.396;2023-02-01T03:06:14;3.80;80.40
70366;DHT22;57787;48.216;12.396;2023-02-01T03:08:44;3.80;80.70
70366;DHT22;57787;48.216;12.396;2023-02-01T03:11:14;3.80;80.70
70366;DHT22;57787;48.216;12.396;2023-02-01T03:13:54;3.80;80.80
70366;DHT22;57787;48.216;12.396;2023-02-01T03:19:21;3.80;80.80
70366;DHT22;57787;48.216;12.396;2023-02-01T03:21:55;3.80;81.00
70366;DHT22;57787;48.216;12.396;2023-02-01T03:24:46;3.80;81.20
70366;DHT22;57787;48.216;12.396;2023-02-01T03:27:24;3.80;81.30
70366;DHT22;57787;48.216;12.396;2023-02-01T03:32:40;3.80;81.40
70366;DHT22;57787;48.216;12.396;2023-02-01T03:38:34;3.80;81.30
70366;DHT22;57787;48.216;12.396;2023-02-01T03:44:26;3.80;81.40
70366;DHT22;57787;48.216;12.396;2023-02-01T03:47:08;3.80;81.50
70366;DHT22;57787;48.216;12.396;2023-02-01T03:49:49;3.80;81.50
70366;DHT22;57787;48.216;12.396;2023-02-01T03:52:25;3.80;81.40
70366;DHT22;57787;48.216;12.396;2023-02-01T03:55:10;3.70;81.40
70366;DHT22;57787;48.216;12.396;2023-02-01T03:57:52;3.70;81.70
70366;DHT22;57787;48.216;12.396;2023-02-01T04:00:23;3.80;81.70
70366;DHT22;57787;48.216;12.396;2023-02-01T04:02:52;3.70;81.70
70366;DHT22;57787;48.216;12.396;2023-02-01T04:05:21;3.70;81.70
70366;DHT22;57787;48.216;12.396;2023-02-01T04:07:48;3.70;81.80
70366;DHT22;57787;48.216;12.396;2023-02-01T04:10:16;3.70;81.80
70366;DHT22;57787;48.216;12.396;2023-02-01T04:12:46;3.70;81.70
70366;DHT22;57787;48.216;12.396;2023-02-01T04:15:13;3.70;81.90
70366;DHT22;57787;48.216;12.396;2023-02-01T04:17:41;3.70;81.80
70366;DHT22;57787;48.216;12.396;2023-02-01T04:20:09;3.70;81.90
70366;DHT22;57787;48.216;12.396;2023-02-01T04:22:37;3.70;81.80
70366;DHT22;57787;48.216;12.396;2023-02-01T04:25:05;3.60;81.80
70366;DHT22;57787;48.216;12.396;2023-02-01T04:27:33;3.60;81.80
70366;DHT22;57787;48.216;12.396;2023-02-01T04:30:01;3.70;81.80
70366;DHT22;57787;48.216;12.396;2023-02-01T04:32:28;3.70;81.70
70366;DHT22;57787;48.216;12.396;2023-02-01T04:34:58;3.60;81.90
70366;DHT22;57787;48.216;12.396;2023-02-01T04:37:26;3.60;81.70
70366;DHT22;57787;48.216;12.396;2023-02-01T04:39:53;3.60;81.90
70366;DHT22;57787;48.216;12.396;2023-02-01T04:42:21;3.60;81.80
70366;DHT22;57787;48.216;12.396;2023-02-01T04:44:49;3.60;82.20
70366;DHT22;57787;48.216;12.396;2023-02-01T04:47:16;3.60;81.90
70366;DHT22;57787;48.216;12.396;2023-02-01T04:49:44;3.60;82.00
70366;DHT22;57787;48.216;12.396;2023-02-01T04:52:11;3.60;82.00
70366;DHT22;57787;48.216;12.396;2023-02-01T04:54:39;3.70;82.10
70366;DHT22;57787;48.216;12.396;2023-02-01T04:57:06;3.60;81.90
70366;DHT22;57787;48.216;12.396;2023-02-01T04:59:34;3.60;81.70
70366;DHT22;57787;48.216;12.396;2023-02-01T05:02:02;3.70;81.70
70366;DHT22;57787;48.216;12.396;2023-02-01T05:04:29;3.60;81.80
70366;DHT22;57787;48.216;12.396;2023-02-01T05:06:57;3.60;81.60
70366;DHT22;57787;48.216;12.396;2023-02-01T05:09:24;3.70;81.70
70366;DHT22;57787;48.216;12.396;2023-02-01T05:11:52;3.60;81.40
70366;DHT22;57787;48.216;12.396;2023-02-01T05:14:38;3.60;81.70
70366;DHT22;57787;48.216;12.396;2023-02-01T05:17:05;3.60;81.40
70366;DHT22;57787;48.216;12.396;2023-02-01T05:19:33;3.60;81.50
70366;DHT22;57787;48.216;12.396;2023-02-01T05:22:01;3.60;81.50
70366;DHT22;57787;48.216;12.396;2023-02-01T05:24:28;3.60;81.60
70366;DHT22;57787;48.216;12.396;2023-02-01T05:26:56;3.60;81.70
70366;DHT22;57787;48.216;12.396;2023-02-01T05:29:24;3.60;81.70
70366;DHT22;57787;48.216;12.396;2023-02-01T05:31:51;3.50;81.70
70366;DHT22;57787;48.216;12.396;2023-02-01T05:34:19;3.50;81.70
70366;DHT22;57787;48.216;12.396;2023-02-01T05:36:46;3.50;81.70
70366;DHT22;57787;48.216;12.396;2023-02-01T05:39:14;3.50;81.60
70366;DHT22;57787;48.216;12.396;2023-02-01T05:41:41;3.50;81.70
70366;DHT22;57787;48.216;12.396;2023-02-01T05:44:10;3.50;82.00
70366;DHT22;57787;48.216;12.396;2023-02-01T05:46:37;3.50;81.80
70366;DHT22;57787;48.216;12.396;2023-02-01T05:49:06;3.60;81.60
70366;DHT22;57787;48.216;12.396;2023-02-01T05:51:34;3.60;81.40
70366;DHT22;57787;48.216;12.396;2023-02-01T05:54:01;3.60;81.30
70366;DHT22;57787;48.216;12.396;2023-02-01T05:56:29;3.60;81.20
70366;DHT22;57787;48.216;12.396;2023-02-01T05:58:57;3.60;81.10
70366;DHT22;57787;48.216;12.396;2023-02-01T06:01:24;3.70;80.80
70366;DHT22;57787;48.216;12.396;2023-02-01T06:03:52;3.70;80.80
70366;DHT22;57787;48.216;12.396;2023-02-01T06:06:20;3.70;80.90
70366;DHT22;57787;48.216;12.396;2023-02-01T06:08:47;3.70;80.60
70366;DHT22;57787;48.216;12.396;2023-02-01T06:11:15;3.70;80.60
70366;DHT22;57787;48.216;12.396;2023-02-01T06:13:59;3.80;80.60
70366;DHT22;57787;48.216;12.396;2023-02-01T06:16:26;3.80;80.60
70366;DHT22;57787;48.216;12.396;2023-02-01T06:18:54;3.80;80.70
70366;DHT22;57787;48.216;12.396;2023-02-01T06:21:22;3.80;80.70
70366;DHT22;57787;48.216;12.396;2023-02-01T06:23:53;3.80;80.70
70366;DHT22;57787;48.216;12.396;2023-02-01T06:26:21;3.80;80.60
70366;DHT22;57787;48.216;12.396;2023-02-01T06:28:49;3.80;80.60
70366;DHT22;57787;48.216;12.396;2023-02-01T06:31:18;3.80;80.50
70366;DHT22;57787;48.216;12.396;2023-02-01T06:33:46;3.80;80.40
70366;DHT22;57787;48.216;12.396;2023-02-01T06:36:14;3.80;80.20
70366;DHT22;57787;48.216;12.396;2023-02-01T06:38:46;3.80;80.10
70366;DHT22;57787;48.216;12.396;2023-02-01T06:41:14;3.80;79.90
70366;DHT22;57787;48.216;12.396;2023-02-01T06:43:42;3.80;80.10
70366;DHT22;57787;48.216;12.396;2023-02-01T06:46:14;3.90;80.20
70366;DHT22;57787;48.216;12.396;2023-02-01T06:48:42;3.90;79.90
70366;DHT22;57787;48.216;12.396;2023-02-01T06:51:22;3.90;79.60
70366;DHT22;57787;48.216;12.396;2023-02-01T06:53:50;3.90;79.30
70366;DHT22;57787;48.216;12.396;2023-02-01T06:56:19;3.90;79.50
70366;DHT22;57787;48.216;12.396;2023-02-01T06:58:49;3.90;79.50
70366;DHT22;57787;48.216;12.396;2023-02-01T07:01:17;3.90;79.60
70366;DHT22;57787;48.216;12.396;2023-02-01T07:03:50;3.80;79.50
70366;DHT22;57787;48.216;12.396;2023-02-01T07:06:19;3.90;79.40
70366;DHT22;57787;48.216;12.396;2023-02-01T07:08:47;3.80;79.20
70366;DHT22;57787;48.216;12.396;2023-02-01T07:11:19;3.90;78.90
70366;DHT22;57787;48.216;12.396;2023-02-01T07:13:50;3.90;79.00
70366;DHT22;57787;48.216;12.396;2023-02-01T07:16:18;3.90;78.90
70366;DHT22;57787;48.216;12.396;2023-02-01T07:18:49;3.90;78.70
70366;DHT22;57787;48.216;12.396;2023-02-01T07:21:18;4.00;78.30
70366;DHT22;57787;48.216;12.396;2023-02-01T07:23:48;4.00;78.50
70366;DHT22;57787;48.216;12.396;2023-02-01T07:26:15;4.00;78.50
70366;DHT22;57787;48.216;12.396;2023-02-01T07:28:44;4.00;78.20
70366;DHT22;57787;48.216;12.396;2023-02-01T07:31:17;4.00;77.90
70366;DHT22;57787;48.216;12.396;2023-02-01T07:33:49;4.00;77.70
70366;DHT22;57787;48.216;12.396;2023-02-01T07:36:20;4.10;77.80
70366;DHT22;57787;48.216;12.396;2023-02-01T07:38:48;4.10;77.90
70366;DHT22;57787;48.216;12.396;2023-02-01T07:41:16;4.10;77.40
70366;DHT22;57787;48.216;12.396;2023-02-01T07:43:45;4.20;77.30
70366;DHT22;57787;48.216;12.396;2023-02-01T07:46:15;4.20;77.40
70366;DHT22;57787;48.216;12.396;2023-02-01T07:48:43;4.30;77.30
70366;DHT22;57787;48.216;12.396;2023-02-01T07:51:13;4.30;77.00
70366;DHT22;57787;48.216;12.396;2023-02-01T07:53:41;4.30;76.70
70366;DHT22;57787;48.216;12.396;2023-02-01T07:56:13;4.30;76.70
70366;DHT22;57787;48.216;12.396;2023-02-01T07:58:40;4.30;76.70
70366;DHT22;57787;48.216;12.396;2023-02-01T08:01:13;4.30;76.40
70366;DHT22;57787;48.216;12.396;2023-02-01T08:03:50;4.40;76.70
70366;DHT22;57787;48.216;12.396;2023-02-01T08:06:18;4.40;76.20
70366;DHT22;57787;48.216;12.396;2023-02-01T08:08:48;4.50;75.80
70366;DHT22;57787;48.216;12.396;2023-02-01T08:11:17;4.50;75.90
70366;DHT22;57787;48.216;12.396;2023-02-01T08:13:45;4.50;75.70
70366;DHT22;57787;48.216;12.396;2023-02-01T08:16:15;4.60;75.80
70366;DHT22;57787;48.216;12.396;2023-02-01T08:18:44;4.60;75.30
70366;DHT22;57787;48.216;12.396;2023-02-01T08:21:14;4.70;75.50
70366;DHT22;57787;48.216;12.396;2023-02-01T08:23:43;4.70;75.00
70366;DHT22;57787;48.216;12.396;2023-02-01T08:26:21;4.70;75.10
70366;DHT22;57787;48.216;12.396;2023-02-01T08:28:55;4.80;75.10
70366;DHT22;57787;48.216;12.396;2023-02-01T08:31:24;4.80;75.00
70366;DHT22;57787;48.216;12.396;2023-02-01T08:33:58;4.80;74.80
70366;DHT22;57787;48.216;12.396;2023-02-01T08:36:29;4.80;74.20
70366;DHT22;57787;48.216;12.396;2023-02-01T08:38:57;4.80;74.30
70366;DHT22;57787;48.216;12.396;2023-02-01T08:41:27;4.80;74.50
70366;DHT22;57787;48.216;12.396;2023-02-01T08:43:55;4.90;74.80
70366;DHT22;57787;48.216;12.396;2023-02-01T08:46:23;4.80;75.00
70366;DHT22;57787;48.216;12.396;2023-02-01T08:48:52;4.90;74.50
70366;DHT22;57787;48.216;12.396;2023-02-01T08:51:21;4.90;74.70
70366;DHT22;57787;48.216;12.396;2023-02-01T08:53:50;5.00;74.70
70366;DHT22;57787;48.216;12.396;2023-02-01T08:56:21;5.10;74.40
70366;DHT22;57787;48.216;12.396;2023-02-01T08:58:50;5.20;74.50
70366;DHT22;57787;48.216;12.396;2023-02-01T09:01:18;5.30;74.40
70366;DHT22;57787;48.216;12.396;2023-02-01T09:03:47;5.40;74.00
70366;DHT22;57787;48.216;12.396;2023-02-01T09:06:16;5.50;74.10
70366;DHT22;57787;48.216;12.396;2023-02-01T09:08:44;5.50;73.20
70366;DHT22;57787;48.216;12.396;2023-02-01T09:11:17;5.60;73.40
70366;DHT22;57787;48.216;12.396;2023-02-01T09:13:46;5.60;73.00
70366;DHT22;57787;48.216;12.396;2023-02-01T09:16:15;5.80;73.00
70366;DHT22;57787;48.216;12.396;2023-02-01T09:18:43;5.80;72.80
70366;DHT22;57787;48.216;12.396;2023-02-01T09:21:28;5.90;72.50
70366;DHT22;57787;48.216;12.396;2023-02-01T09:23:57;5.90;72.00
70366;DHT22;57787;48.216;12.396;2023-02-01T09:26:25;6.00;72.30
70366;DHT22;57787;48.216;12.396;2023-02-01T09:29:00;6.10;72.20
70366;DHT22;57787;48.216;12.396;2023-02-01T09:31:29;6.30;71.80
70366;DHT22;57787;48.216;12.396;2023-02-01T09:33:57;6.40;71.00
70366;DHT22;57787;48.216;12.396;2023-02-01T09:36:24;6.60;70.90
70366;DHT22;57787;48.216;12.396;2023-02-01T09:38:52;6.80;70.80
70366;DHT22;57787;48.216;12.396;2023-02-01T09:41:51;7.00;70.60
70366;DHT22;57787;48.216;12.396;2023-02-01T09:47:13;7.10;68.30
70366;DHT22;57787;48.216;12.396;2023-02-01T09:49:56;7.10;68.10
70366;DHT22;57787;48.216;12.396;2023-02-01T09:52:40;7.10;67.30
70366;DHT22;57787;48.216;12.396;2023-02-01T09:55:40;7.00;67.00
70366;DHT22;57787;48.216;12.396;2023-02-01T09:58:12;6.90;68.00
70366;DHT22;57787;48.216;12.396;2023-02-01T10:00:51;6.90;68.10
70366;DHT22;57787;48.216;12.396;2023-02-01T10:03:23;6.90;68.20
70366;DHT22;57787;48.216;12.396;2023-02-01T10:06:04;6.90;67.90
70366;DHT22;57787;48.216;12.396;2023-02-01T10:20:24;6.90;67.60
70366;DHT22;57787;48.216;12.396;2023-02-01T10:26:08;7.00;67.40
70366;DHT22;57787;48.216;12.396;2023-02-01T10:28:42;7.10;67.50
70366;DHT22;57787;48.216;12.396;2023-02-01T10:31:12;7.20;66.90
70366;DHT22;57787;48.216;12.396;2023-02-01T10:33:45;7.20;67.00
70366;DHT22;57787;48.216;12.396;2023-02-01T10:39:04;7.20;66.70
70366;DHT22;57787;48.216;12.396;2023-02-01T10:41:35;7.20;66.00
70366;DHT22;57787;48.216;12.396;2023-02-01T10:44:10;7.20;66.40
70366;DHT22;57787;48.216;12.396;2023-02-01T10:46:40;7.20;66.70
70366;DHT22;57787;48.216;12.396;2023-02-01T10:49:24;7.20;67.10
70366;DHT22;57787;48.216;12.396;2023-02-01T10:52:05;7.20;66.80
70366;DHT22;57787;48.216;12.396;2023-02-01T10:54:37;7.20;66.40
70366;DHT22;57787;48.216;12.396;2023-02-01T10:57:24;7.20;66.80
70366;DHT22;57787;48.216;12.396;2023-02-01T10:59:53;7.20;66.30
70366;DHT22;57787;48.216;12.396;2023-02-01T11:02:54;7.20;65.70
70366;DHT22;57787;48.216;12.396;2023-02-01T11:05:17;7.20;65.90
70366;DHT22;57787;48.216;12.396;2023-02-01T11:07:49;7.20;65.00
70366;DHT22;57787;48.216;12.396;2023-02-01T11:10:38;7.20;65.80
70366;DHT22;57787;48.216;12.396;2023-02-01T11:13:18;7.20;65.30
70366;DHT22;57787;48.216;12.396;2023-02-01T11:15:55;7.20;65.90
70366;DHT22;57787;48.216;12.396;2023-02-01T11:18:30;7.30;65.80
70366;DHT22;57787;48.216;12.396;2023-02-01T11:20:59;7.30;65.60
70366;DHT22;57787;48.216;12.396;2023-02-01T11:23:30;7.20;64.10
70366;DHT22;57787;48.216;12.396;2023-02-01T11:26:07;7.20;64.60
70366;DHT22;57787;48.216;12.396;2023-02-01T11:28:39;7.20;65.00
70366;DHT22;57787;48.216;12.396;2023-02-01T11:31:10;7.20;64.10
70366;DHT22;57787;48.216;12.396;2023-02-01T11:33:49;7.20;65.30
70366;DHT22;57787;48.216;12.396;2023-02-01T11:36:22;7.30;65.50
70366;DHT22;57787;48.216;12.396;2023-02-01T11:41:56;7.30;66.20
70366;DHT22;57787;48.216;12.396;2023-02-01T11:44:43;7.50;66.20
70366;DHT22;57787;48.216;12.396;2023-02-01T11:47:26;7.50;65.40
70366;DHT22;57787;48.216;12.396;2023-02-01T11:49:57;7.50;66.00
70366;DHT22;57787;48.216;12.396;2023-02-01T11:55:26;7.40;65.70
70366;DHT22;57787;48.216;12.396;2023-02-01T12:18:01;7.80;63.10
70366;DHT22;57787;48.216;12.396;2023-02-01T12:26:21;8.10;62.90
70366;DHT22;57787;48.216;12.396;2023-02-01T12:31:44;8.00;63.30
70366;DHT22;57787;48.216;12.396;2023-02-01T12:34:38;8.00;63.20
70366;DHT22;57787;48.216;12.396;2023-02-01T12:43:18;8.10;63.60
70366;DHT22;57787;48.216;12.396;2023-02-01T12:45:53;8.10;64.10
70366;DHT22;57787;48.216;12.396;2023-02-01T12:48:37;8.00;63.60
70366;DHT22;57787;48.216;12.396;2023-02-01T12:51:16;8.00;63.70
70366;DHT22;57787;48.216;12.396;2023-02-01T12:53:52;8.00;64.10
70366;DHT22;57787;48.216;12.396;2023-02-01T12:56:46;8.00;64.50
70366;DHT22;57787;48.216;12.396;2023-02-01T12:59:37;7.90;63.20
70366;DHT22;57787;48.216;12.396;2023-02-01T13:02:18;7.80;63.50
70366;DHT22;57787;48.216;12.396;2023-02-01T13:07:29;7.80;64.40
70366;DHT22;57787;48.216;12.396;2023-02-01T13:10:57;7.80;63.70
70366;DHT22;57787;48.216;12.396;2023-02-01T13:12:56;7.70;63.30
70366;DHT22;57787;48.216;12.396;2023-02-01T13:15:31;7.60;64.50
70366;DHT22;57787;48.216;12.396;2023-02-01T13:18:03;7.60;64.00
70366;DHT22;57787;48.216;12.396;2023-02-01T13:20:42;7.60;64.70
70366;DHT22;57787;48.216;12.396;2023-02-01T13:23:29;7.60;64.60
70366;DHT22;57787;48.216;12.396;2023-02-01T13:25:58;7.50;64.10
70366;DHT22;57787;48.216;12.396;2023-02-01T13:28:51;7.50;64.00
70366;DHT22;57787;48.216;12.396;2023-02-01T13:42:24;7.10;64.20
70366;DHT22;57787;48.216;12.396;2023-02-01T13:45:36;7.00;64.80
70366;DHT22;57787;48.216;12.396;2023-02-01T13:47:46;6.90;64.90
70366;DHT22;57787;48.216;12.396;2023-02-01T13:52:45;6.80;64.80
70366;DHT22;57787;48.216;12.396;2023-02-01T13:57:49;6.70;65.10
70366;DHT22;57787;48.216;12.396;2023-02-01T14:03:15;6.60;65.80
70366;DHT22;57787;48.216;12.396;2023-02-01T14:08:35;6.50;65.60
70366;DHT22;57787;48.216;12.396;2023-02-01T14:11:05;6.50;65.50
70366;DHT22;57787;48.216;12.396;2023-02-01T14:13:36;6.40;65.40
70366;DHT22;57787;48.216;12.396;2023-02-01T14:21:19;6.50;65.20
70366;DHT22;57787;48.216;12.396;2023-02-01T14:26:44;6.40;64.50
70366;DHT22;57787;48.216;12.396;2023-02-01T14:32:16;6.40;65.10
70366;DHT22;57787;48.216;12.396;2023-02-01T14:40:06;6.30;66.70
70366;DHT22;57787;48.216;12.396;2023-02-01T14:42:46;6.30;66.70
70366;DHT22;57787;48.216;12.396;2023-02-01T14:48:41;6.30;66.20
70366;DHT22;57787;48.216;12.396;2023-02-01T14:50:45;6.30;66.80
70366;DHT22;57787;48.216;12.396;2023-02-01T14:53:19;6.30;66.50
70366;DHT22;57787;48.216;12.396;2023-02-01T14:58:44;6.20;67.70
70366;DHT22;57787;48.216;12.396;2023-02-01T15:01:29;6.10;68.30
70366;DHT22;57787;48.216;12.396;2023-02-01T15:06:43;6.00;68.30
70366;DHT22;57787;48.216;12.396;2023-02-01T15:09:42;5.90;69.30
70366;DHT22;57787;48.216;12.396;2023-02-01T15:14:47;5.80;70.10
70366;DHT22;57787;48.216;12.396;2023-02-01T15:17:25;5.70;70.60
70366;DHT22;57787;48.216;12.396;2023-02-01T15:19:54;5.70;70.90
70366;DHT22;57787;48.216;12.396;2023-02-01T15:22:23;5.70;71.70
70366;DHT22;57787;48.216;12.396;2023-02-01T15:24:59;5.70;71.30
70366;DHT22;57787;48.216;12.396;2023-02-01T15:27:29;5.70;71.30
70366;DHT22;57787;48.216;12.396;2023-02-01T15:30:08;5.60;71.40
70366;DHT22;57787;48.216;12.396;2023-02-01T15:32:38;5.60;71.40
70366;DHT22;57787;48.216;12.396;2023-02-01T15:43:37;5.50;70.00
70366;DHT22;57787;48.216;12.396;2023-02-01T15:46:21;5.40;69.70
70366;DHT22;57787;48.216;12.396;2023-02-01T15:48:52;5.30;69.90
70366;DHT22;57787;48.216;12.396;2023-02-01T15:51:27;5.30;69.00
70366;DHT22;57787;48.216;12.396;2023-02-01T15:54:05;5.30;68.90
70366;DHT22;57787;48.216;12.396;2023-02-01T15:56:38;5.30;68.90
70366;DHT22;57787;48.216;12.396;2023-02-01T15:59:17;5.30;67.90
70366;DHT22;57787;48.216;12.396;2023-02-01T16:01:46;5.30;67.60
70366;DHT22;57787;48.216;12.396;2023-02-01T16:04:29;5.30;67.50
70366;DHT22;57787;48.216;12.396;2023-02-01T16:07:03;5.30;67.80
70366;DHT22;57787;48.216;12.396;2023-02-01T16:09:46;5.20;68.30
70366;DHT22;57787;48.216;12.396;2023-02-01T16:12:31;5.20;68.50
70366;DHT22;57787;48.216;12.396;2023-02-01T16:15:02;5.20;68.60
70366;DHT22;57787;48.216;12.396;2023-02-01T16:17:31;5.10;68.60
70366;DHT22;57787;48.216;12.396;2023-02-01T16:19:59;5.10;68.20
70366;DHT22;57787;48.216;12.396;2023-02-01T16:22:28;5.10;68.70
70366;DHT22;57787;48.216;12.396;2023-02-01T16:24:56;5.00;69.10
70366;DHT22;57787;48.216;12.396;2023-02-01T16:27:24;5.00;69.00
70366;DHT22;57787;48.216;12.396;2023-02-01T16:29:52;5.00;69.40
70366;DHT22;57787;48.216;12.396;2023-02-01T16:32:24;5.00;69.50
70366;DHT22;57787;48.216;12.396;2023-02-01T16:34:54;4.90;70.30
70366;DHT22;57787;48.216;12.396;2023-02-01T16:37:25;4.90;69.60
70366;DHT22;57787;48.216;12.396;2023-02-01T16:39:56;4.90;70.30
70366;DHT22;57787;48.216;12.396;2023-02-01T16:42:24;4.90;70.80
70366;DHT22;57787;48.216;12.396;2023-02-01T16:44:52;4.90;70.60
70366;DHT22;57787;48.216;12.396;2023-02-01T16:47:21;4.90;70.50
70366;DHT22;57787;48.216;12.396;2023-02-01T16:49:51;4.90;70.50
70366;DHT22;57787;48.216;12.396;2023-02-01T16:52:21;4.90;71.00
70366;DHT22;57787;48.216;12.396;2023-02-01T16:54:50;4.90;71.40
70366;DHT22;57787;48.216;12.396;2023-02-01T16:57:19;4.90;71.20
70366;DHT22;57787;48.216;12.396;2023-02-01T16:59:51;4.90;71.10
70366;DHT22;57787;48.216;12.396;2023-02-01T17:02:19;4.80;71.50
70366;DHT22;57787;48.216;12.396;2023-02-01T17:04:48;4.80;71.60
70366;DHT22;57787;48.216;12.396;2023-02-01T17:07:17;4.80;71.90
70366;DHT22;57787;48.216;12.396;2023-02-01T17:09:46;4.80;72.10
70366;DHT22;57787;48.216;12.396;2023-02-01T17:12:29;4.80;71.90
70366;DHT22;57787;48.216;12.396;2023-02-01T17:14:59;4.80;72.00
70366;DHT22;57787;48.216;12.396;2023-02-01T17:17:32;4.80;72.10
70366;DHT22;57787;48.216;12.396;2023-02-01T17:20:05;4.80;71.80
70366;DHT22;57787;48.216;12.396;2023-02-01T17:22:33;4.80;71.70
70366;DHT22;57787;48.216;12.396;2023-02-01T17:25:02;4.80;71.50
70366;DHT22;57787;48.216;12.396;2023-02-01T17:27:33;4.70;71.60
70366;DHT22;57787;48.216;12.396;2023-02-01T17:30:02;4.70;71.30
70366;DHT22;57787;48.216;12.396;2023-02-01T17:32:31;4.70;71.10
70366;DHT22;57787;48.216;12.396;2023-02-01T17:34:59;4.70;71.40
70366;DHT22;57787;48.216;12.396;2023-02-01T17:37:31;4.70;71.60
70366;DHT22;57787;48.216;12.396;2023-02-01T17:40:00;4.70;71.80
70366;DHT22;57787;48.216;12.396;2023-02-01T17:42:29;4.70;71.20
70366;DHT22;57787;48.216;12.396;2023-02-01T17:45:00;4.70;71.30
70366;DHT22;57787;48.216;12.396;2023-02-01T17:47:29;4.70;71.20
70366;DHT22;57787;48.216;12.396;2023-02-01T17:50:02;4.60;71.50
70366;DHT22;57787;48.216;12.396;2023-02-01T17:52:30;4.60;71.30
70366;DHT22;57787;48.216;12.396;2023-02-01T17:54:58;4.70;71.30
70366;DHT22;57787;48.216;12.396;2023-02-01T17:57:27;4.70;71.70
70366;DHT22;57787;48.216;12.396;2023-02-01T17:59:55;4.70;71.50
70366;DHT22;57787;48.216;12.396;2023-02-01T18:02:23;4.70;71.60
70366;DHT22;57787;48.216;12.396;2023-02-01T18:04:51;4.70;71.10
70366;DHT22;57787;48.216;12.396;2023-02-01T18:07:19;4.70;71.40
70366;DHT22;57787;48.216;12.396;2023-02-01T18:09:47;4.60;71.60
70366;DHT22;57787;48.216;12.396;2023-02-01T18:12:21;4.60;71.50
70366;DHT22;57787;48.216;12.396;2023-02-01T18:14:52;4.60;71.50
70366;DHT22;57787;48.216;12.396;2023-02-01T18:17:19;4.60;71.50
70366;DHT22;57787;48.216;12.396;2023-02-01T18:19:47;4.60;71.50
70366;DHT22;57787;48.216;12.396;2023-02-01T18:22:17;4.60;71.30
70366;DHT22;57787;48.216;12.396;2023-02-01T18:24:45;4.60;71.40
70366;DHT22;57787;48.216;12.396;2023-02-01T18:27:14;4.60;71.20
70366;DHT22;57787;48.216;12.396;2023-02-01T18:29:41;4.60;70.90
70366;DHT22;57787;48.216;12.396;2023-02-01T18:32:09;4.70;70.70
70366;DHT22;57787;48.216;12.396;2023-02-01T18:34:37;4.70;71.10